This is the latest recevied weather packets stored in our database for station/object RK6MF-10. If no packets are shown the sender has not sent any weather packets the latest 10 day(s).
| Time | Temp. | Humidity | Pressure | Rain* | Wind** | Luminosity | Snow |
|---|---|---|---|---|---|---|---|
| 1787901615 | 25° C | 39% | 1009.3 hPa | - | - | - | - |
| 1787900715 | 28.33° C | 34% | 1008.9 hPa | - | - | - | - |
| 1787899815 | 26.67° C | 36% | 1008.9 hPa | - | - | - | - |
| 1787898915 | 27.22° C | 39% | 1009.1 hPa | - | - | - | - |
| 1787898015 | 27.22° C | 41% | 1008.9 hPa | - | - | - | - |
| 1787897115 | 25° C | 47% | 1009 hPa | - | - | - | - |
| 1787896215 | 23.89° C | 48% | 1008.9 hPa | - | - | - | - |
| 1787895314 | 23.89° C | 48% | 1008.8 hPa | - | - | - | - |
| 1787894414 | 23.89° C | 47% | 1008.8 hPa | - | - | - | - |
| 1787893514 | 22.22° C | 50% | 1008.9 hPa | - | - | - | - |
| 1787892614 | 22.22° C | 50% | 1008.9 hPa | - | - | - | - |
| 1787891714 | 22.78° C | 50% | 1009 hPa | - | - | - | - |
| 1787890814 | 20° C | 56% | 1008.9 hPa | - | - | - | - |
| 1787889914 | 19.44° C | 57% | 1009.1 hPa | - | - | - | - |
| 1787889012 | 19.44° C | 57% | 1008.9 hPa | - | - | - | - |
| 1787888111 | 19.44° C | 57% | 1008.8 hPa | - | - | - | - |
| 1787887211 | 19.44° C | 57% | 1008.8 hPa | - | - | - | - |
| 1787886310 | 19.44° C | 56% | 1008.9 hPa | - | - | - | - |
| 1787885410 | 19.44° C | 55% | 1008.8 hPa | - | - | - | - |
| 1787884510 | 19.44° C | 55% | 1008.7 hPa | - | - | - | - |
| 1787883610 | 20° C | 53% | 1008.6 hPa | - | - | - | - |
| 1787882710 | 20° C | 53% | 1008.6 hPa | - | - | - | - |
| 1787881810 | 20.56° C | 52% | 1008.5 hPa | - | - | - | - |
| 1787880014 | 20.56° C | 51% | 1008.5 hPa | - | - | - | - |
| 1787879114 | 21.11° C | 51% | 1008.4 hPa | - | - | - | - |
* Rain since midnight (hover to see other rain measurements)
** Current wind speed in m/s (hover to see current wind gust speed)